createdAt,value
2022-12-25T00:31:31.857Z,45.68
2022-12-25T00:32:32.424Z,45.96
2022-12-25T00:33:31.892Z,52.77
2022-12-25T00:34:33.384Z,44.15
2022-12-25T00:35:31.850Z,49.05
2022-12-25T00:36:36.258Z,48.78
2022-12-25T00:37:57.684Z,45.30
2022-12-25T00:38:31.900Z,48.54
2022-12-25T00:39:34.876Z,54.09
2022-12-25T00:40:34.029Z,48.07
2022-12-25T00:41:33.881Z,52.22
2022-12-25T00:42:33.629Z,48.24
2022-12-25T00:43:33.210Z,52.42
2022-12-25T00:44:33.725Z,50.81
2022-12-25T00:45:34.987Z,46.17
2022-12-25T00:46:37.531Z,46.27
2022-12-25T00:47:34.912Z,47.42
2022-12-25T00:48:34.119Z,47.60
2022-12-25T00:49:33.544Z,52.58
2022-12-25T00:50:33.771Z,54.35
2022-12-25T00:51:33.200Z,49.08
2022-12-25T00:52:33.056Z,49.52
2022-12-25T00:53:33.154Z,45.30
2022-12-25T00:54:32.923Z,45.56
2022-12-25T00:55:33.084Z,42.66
2022-12-25T00:56:32.800Z,51.71
2022-12-25T00:57:32.928Z,52.29
2022-12-25T00:58:32.928Z,53.80
2022-12-25T00:59:32.877Z,44.57
2022-12-25T01:00:32.877Z,35.44
2022-12-25T01:01:33.162Z,48.99
2022-12-25T01:02:33.118Z,47.97
2022-12-25T01:03:33.692Z,54.18
2022-12-25T01:04:33.402Z,51.37
2022-12-25T01:05:33.747Z,49.13
2022-12-25T01:06:33.424Z,45.32
2022-12-25T01:07:33.364Z,32.21
2022-12-25T01:08:33.752Z,39.95
2022-12-25T01:09:33.831Z,51.87
2022-12-25T01:10:33.953Z,47.87
2022-12-25T01:11:34.375Z,44.82
2022-12-25T01:12:33.506Z,45.99
2022-12-25T01:13:33.092Z,39.26
2022-12-25T01:14:33.242Z,44.35
2022-12-25T01:15:33.362Z,38.35
2022-12-25T01:16:33.147Z,34.10
2022-12-25T01:17:33.885Z,43.10
2022-12-25T01:18:33.483Z,44.19
2022-12-25T01:19:34.021Z,35.02
2022-12-25T01:20:33.863Z,33.72
2022-12-25T01:21:33.010Z,42.88
2022-12-25T01:22:33.210Z,51.14
2022-12-25T01:23:33.412Z,45.72
2022-12-25T01:24:32.957Z,37.15
2022-12-25T01:25:33.374Z,41.64
2022-12-25T01:26:33.756Z,34.56
2022-12-25T01:27:34.470Z,40.20
2022-12-25T01:28:33.151Z,40.36
2022-12-25T01:29:32.966Z,41.86
2022-12-25T01:30:33.303Z,49.30
2022-12-25T01:31:33.194Z,38.13
2022-12-25T01:32:33.185Z,47.76
2022-12-25T01:33:33.040Z,42.07
2022-12-25T01:34:32.849Z,33.06
2022-12-25T01:35:32.642Z,33.24
2022-12-25T01:36:32.430Z,41.73
2022-12-25T01:37:32.505Z,46.91
2022-12-25T01:38:32.491Z,38.12
2022-12-25T01:39:32.349Z,41.45
2022-12-25T01:40:32.632Z,40.27
2022-12-25T01:41:32.755Z,43.46
2022-12-25T01:42:32.563Z,44.81
2022-12-25T01:43:32.665Z,34.96
2022-12-25T01:44:32.688Z,38.60
2022-12-25T01:45:32.126Z,44.27
2022-12-25T01:46:32.082Z,41.94
2022-12-25T01:47:32.063Z,45.17
2022-12-25T01:48:32.141Z,35.73
2022-12-25T01:49:32.080Z,33.35
2022-12-25T01:50:32.071Z,34.28
2022-12-25T01:51:31.995Z,40.22
2022-12-25T01:52:31.993Z,47.78
2022-12-25T01:53:32.006Z,46.18
2022-12-25T01:54:31.954Z,44.99
2022-12-25T01:55:32.013Z,39.50
2022-12-25T01:56:32.015Z,47.00
2022-12-25T01:57:31.940Z,39.15
2022-12-25T01:58:31.971Z,42.54
2022-12-25T01:59:31.933Z,43.15
2022-12-25T02:00:31.948Z,43.56
2022-12-25T02:01:32.080Z,44.04
2022-12-25T02:02:32.124Z,48.65
2022-12-25T02:03:32.102Z,46.79
2022-12-25T02:04:31.900Z,39.25
2022-12-25T02:05:31.923Z,48.33
2022-12-25T02:06:31.887Z,37.29
2022-12-25T02:07:31.846Z,36.42
2022-12-25T02:08:31.934Z,46.10
2022-12-25T02:09:31.845Z,42.82
2022-12-25T02:10:31.851Z,42.36
2022-12-25T02:11:31.843Z,48.32
2022-12-25T02:12:31.811Z,36.06
2022-12-25T02:13:31.819Z,33.86
2022-12-25T02:14:31.757Z,39.95
2022-12-25T02:15:31.838Z,47.59
2022-12-25T02:16:31.808Z,45.56
2022-12-25T02:17:31.729Z,39.94
2022-12-25T02:18:31.757Z,38.08
2022-12-25T02:19:31.787Z,45.47
2022-12-25T02:20:31.718Z,36.66
2022-12-25T02:21:31.918Z,43.08
2022-12-25T02:22:31.799Z,43.10
2022-12-25T02:23:31.857Z,35.24
2022-12-25T02:24:31.722Z,33.82
2022-12-25T02:25:31.760Z,32.83
2022-12-25T02:26:31.709Z,33.23
2022-12-25T02:27:31.709Z,33.23
2022-12-25T02:28:31.732Z,40.93
2022-12-25T02:29:31.698Z,37.18
2022-12-25T02:30:31.688Z,46.58
2022-12-25T02:31:31.714Z,35.16
2022-12-25T02:32:31.676Z,38.83
2022-12-25T02:33:31.642Z,39.38
2022-12-25T02:34:31.741Z,34.74
2022-12-25T02:35:31.622Z,33.03
2022-12-25T02:36:31.591Z,33.85
2022-12-25T02:37:31.634Z,34.31
2022-12-25T02:38:31.676Z,38.65
2022-12-25T02:39:31.662Z,39.34
2022-12-25T02:40:31.591Z,35.18
2022-12-25T02:41:31.643Z,43.73
2022-12-25T02:42:31.652Z,41.00
2022-12-25T02:43:31.658Z,35.01
2022-12-25T02:44:31.627Z,32.94
2022-12-25T02:45:31.634Z,39.67
2022-12-25T02:46:31.546Z,44.41
2022-12-25T02:47:31.464Z,41.83
2022-12-25T02:48:31.508Z,40.85
2022-12-25T02:49:31.486Z,50.22
2022-12-25T02:50:31.500Z,43.27
2022-12-25T02:51:31.543Z,40.03
2022-12-25T02:52:31.491Z,43.55
2022-12-25T02:53:31.522Z,41.99
2022-12-25T02:54:31.474Z,39.67
2022-12-25T02:55:31.512Z,43.02
2022-12-25T02:56:31.447Z,42.54
2022-12-25T02:57:31.462Z,37.84
2022-12-25T02:58:31.473Z,39.90
2022-12-25T02:59:31.509Z,42.31
2022-12-25T03:00:32.434Z,35.33
2022-12-25T03:01:31.629Z,40.10
2022-12-25T03:02:31.585Z,37.77
2022-12-25T03:03:31.515Z,38.78
2022-12-25T03:04:31.468Z,40.49
2022-12-25T03:05:31.447Z,35.62
2022-12-25T03:06:31.485Z,47.01
2022-12-25T03:07:31.504Z,48.39
2022-12-25T03:08:31.427Z,40.40
2022-12-25T03:09:31.556Z,37.80
2022-12-25T03:10:31.566Z,43.45
2022-12-25T03:11:31.425Z,39.99
2022-12-25T03:12:31.462Z,38.93
2022-12-25T03:13:31.664Z,46.35
2022-12-25T03:14:31.474Z,44.49
2022-12-25T03:15:31.328Z,46.03
2022-12-25T03:16:31.461Z,42.16
2022-12-25T03:17:31.362Z,45.01
2022-12-25T03:18:31.363Z,44.72
2022-12-25T03:19:31.429Z,33.76
2022-12-25T03:20:31.257Z,32.64
2022-12-25T03:21:31.482Z,32.50
2022-12-25T03:22:31.512Z,34.34
2022-12-25T03:23:31.413Z,38.21
2022-12-25T03:24:31.369Z,45.90
2022-12-25T03:25:31.273Z,37.57
2022-12-25T03:26:31.283Z,43.76
2022-12-25T03:27:31.248Z,52.37
2022-12-25T03:28:32.178Z,49.21
2022-12-25T03:29:31.944Z,43.75
2022-12-25T03:30:32.185Z,42.21
2022-12-25T03:31:31.122Z,38.40
2022-12-25T03:32:31.094Z,34.77
2022-12-25T03:33:46.007Z,40.59
2022-12-25T03:34:33.060Z,36.47
2022-12-25T03:35:31.009Z,33.02
2022-12-25T03:36:31.120Z,39.48
2022-12-25T03:37:32.106Z,40.66
2022-12-25T03:38:31.046Z,34.23
2022-12-25T03:39:31.073Z,32.23
2022-12-25T03:40:31.011Z,32.48
2022-12-25T03:41:31.020Z,35.62
2022-12-25T03:42:32.192Z,35.92
2022-12-25T03:43:30.914Z,43.56
2022-12-25T03:44:30.969Z,40.44
2022-12-25T03:45:30.929Z,38.81
2022-12-25T03:46:31.022Z,33.57
2022-12-25T03:47:30.894Z,33.19
2022-12-25T03:48:30.900Z,39.07
2022-12-25T03:49:30.887Z,39.73
2022-12-25T03:50:30.824Z,39.88
2022-12-25T03:51:30.872Z,34.66
2022-12-25T03:52:30.868Z,34.66
2022-12-25T03:53:30.823Z,36.65
2022-12-25T03:54:30.831Z,41.79
2022-12-25T03:55:30.785Z,41.07
2022-12-25T03:56:30.819Z,35.15
2022-12-25T03:57:30.815Z,33.58
2022-12-25T03:58:30.776Z,39.72
2022-12-25T03:59:30.784Z,40.26
2022-12-25T04:00:31.212Z,34.59
2022-12-25T04:01:31.549Z,38.35
2022-12-25T04:02:31.288Z,35.50
2022-12-25T04:03:31.019Z,37.13
2022-12-25T04:04:30.933Z,40.47
2022-12-25T04:05:31.044Z,39.03
2022-12-25T04:06:30.680Z,39.30
2022-12-25T04:07:30.694Z,41.51
2022-12-25T04:08:30.693Z,40.35
2022-12-25T04:09:30.667Z,45.43
2022-12-25T04:10:30.637Z,44.67
2022-12-25T04:11:30.643Z,48.13
2022-12-25T04:12:30.711Z,41.06
2022-12-25T04:13:30.612Z,35.85
2022-12-25T04:14:30.621Z,41.26
2022-12-25T04:15:30.681Z,36.14
2022-12-25T04:16:30.617Z,37.03
2022-12-25T04:17:30.566Z,44.47
2022-12-25T04:18:30.575Z,44.96
2022-12-25T04:19:30.604Z,45.54
2022-12-25T04:20:30.556Z,41.98
2022-12-25T04:21:30.781Z,46.32
2022-12-25T04:22:30.689Z,39.60
2022-12-25T04:23:30.714Z,39.63
2022-12-25T04:24:30.717Z,36.36
2022-12-25T04:25:30.661Z,41.83
2022-12-25T04:26:30.702Z,49.04
2022-12-25T04:27:30.559Z,41.73
2022-12-25T04:28:30.630Z,46.86
2022-12-25T04:29:30.515Z,43.08
2022-12-25T04:30:30.554Z,46.60
2022-12-25T04:31:30.593Z,45.52
2022-12-25T04:32:31.637Z,40.57
2022-12-25T04:33:30.657Z,43.24
2022-12-25T04:34:30.658Z,45.44
2022-12-25T04:35:30.637Z,39.66
2022-12-25T04:36:30.496Z,48.56
2022-12-25T04:37:30.488Z,47.17
2022-12-25T04:38:30.367Z,41.67
2022-12-25T04:39:30.374Z,46.90
2022-12-25T04:40:30.349Z,45.94
2022-12-25T04:41:30.386Z,42.18
2022-12-25T04:42:30.316Z,41.13
2022-12-25T04:43:30.341Z,35.21
2022-12-25T04:44:30.366Z,42.40
2022-12-25T04:45:30.324Z,47.45
2022-12-25T04:46:30.395Z,48.97
2022-12-25T04:47:30.283Z,43.30
2022-12-25T04:48:30.256Z,42.90
2022-12-25T04:49:30.291Z,43.71
2022-12-25T04:50:30.245Z,37.78
2022-12-25T04:51:30.362Z,48.83
2022-12-25T04:52:30.321Z,38.62
2022-12-25T04:53:30.373Z,41.61
2022-12-25T04:54:30.280Z,45.18
2022-12-25T04:55:30.284Z,44.50
2022-12-25T04:56:30.310Z,35.94
2022-12-25T04:57:30.324Z,34.47
2022-12-25T04:58:30.281Z,33.83
2022-12-25T04:59:30.325Z,36.86
2022-12-25T05:00:30.355Z,41.84
2022-12-25T05:01:30.450Z,36.95
2022-12-25T05:02:30.495Z,41.98
2022-12-25T05:03:30.371Z,39.42
2022-12-25T05:04:30.337Z,42.38
2022-12-25T05:05:31.223Z,36.67
2022-12-25T05:06:30.339Z,47.23
2022-12-25T05:07:30.199Z,43.68
2022-12-25T05:08:30.329Z,43.96
2022-12-25T05:09:30.348Z,38.00
2022-12-25T05:10:30.260Z,50.50
2022-12-25T05:11:30.179Z,48.65
2022-12-25T05:12:30.242Z,43.36
2022-12-25T05:13:30.189Z,51.18
2022-12-25T05:14:30.189Z,48.48
2022-12-25T05:15:30.125Z,40.59
2022-12-25T05:16:30.257Z,41.99
2022-12-25T05:17:30.069Z,42.54
2022-12-25T05:18:29.981Z,47.22
2022-12-25T05:19:29.964Z,51.78
2022-12-25T05:20:34.724Z,43.60
2022-12-25T05:21:31.986Z,45.27
2022-12-25T05:22:29.970Z,45.33
2022-12-25T05:23:29.909Z,44.32
2022-12-25T05:24:29.965Z,43.13
2022-12-25T05:25:29.881Z,45.78
2022-12-25T05:26:29.911Z,46.02
2022-12-25T05:27:29.899Z,43.33
2022-12-25T05:28:29.845Z,44.64
2022-12-25T05:29:29.892Z,51.64
2022-12-25T05:30:29.877Z,49.63
2022-12-25T05:31:29.854Z,43.34
2022-12-25T05:32:29.835Z,46.30
2022-12-25T05:33:29.872Z,52.12
2022-12-25T05:34:29.834Z,45.24
2022-12-25T05:35:29.855Z,35.61
2022-12-25T05:36:29.837Z,42.61
2022-12-25T05:37:29.813Z,47.64
2022-12-25T05:38:29.782Z,54.42
2022-12-25T05:39:29.797Z,49.93
2022-12-25T05:40:29.744Z,53.34
2022-12-25T05:41:34.150Z,51.71
2022-12-25T05:42:31.787Z,44.67
2022-12-25T05:43:29.732Z,48.58
2022-12-25T05:44:29.695Z,46.32
2022-12-25T05:45:29.695Z,51.88
2022-12-25T05:46:29.786Z,42.55
2022-12-25T05:47:29.671Z,50.70
2022-12-25T05:48:29.696Z,49.63
2022-12-25T05:49:29.690Z,50.68
2022-12-25T05:50:29.696Z,48.42
2022-12-25T05:51:29.683Z,51.06
2022-12-25T05:52:29.666Z,49.71
2022-12-25T05:53:29.601Z,50.40
2022-12-25T05:54:29.628Z,49.12
2022-12-25T05:55:29.659Z,51.79
2022-12-25T05:56:29.643Z,49.33
2022-12-25T05:57:29.611Z,51.66
2022-12-25T05:58:29.588Z,52.39
2022-12-25T05:59:29.570Z,52.25
2022-12-25T06:00:29.617Z,55.82
2022-12-25T06:01:29.704Z,56.14
2022-12-25T06:02:29.769Z,56.87
2022-12-25T06:03:29.676Z,57.77
2022-12-25T06:04:29.537Z,57.28
2022-12-25T06:05:29.529Z,57.40
2022-12-25T06:06:29.487Z,56.59
2022-12-25T06:07:29.471Z,56.41
2022-12-25T06:08:29.460Z,55.66
2022-12-25T06:09:29.522Z,55.93
2022-12-25T06:10:29.489Z,56.23
2022-12-25T06:11:29.440Z,55.17
2022-12-25T06:12:29.512Z,54.68
2022-12-25T06:13:29.428Z,52.37
2022-12-25T06:14:29.458Z,53.73
2022-12-25T06:15:29.474Z,51.96
2022-12-25T06:16:35.591Z,52.17
2022-12-25T06:17:31.436Z,52.13
2022-12-25T06:18:29.393Z,51.04
2022-12-25T06:58:54.607Z,47.49
2022-12-25T06:59:55.513Z,53.73
2022-12-25T07:00:55.585Z,53.67
2022-12-25T07:01:54.588Z,52.80
2022-12-25T07:02:54.432Z,54.60
2022-12-25T07:03:54.384Z,55.83
2022-12-25T07:04:54.410Z,44.89
2022-12-25T07:05:54.338Z,40.77
2022-12-25T07:06:54.342Z,40.01
2022-12-25T07:07:54.286Z,52.33
2022-12-25T07:08:54.271Z,48.17
2022-12-25T07:09:54.298Z,52.54
2022-12-25T07:10:54.284Z,49.98
2022-12-25T07:11:54.245Z,51.55
2022-12-25T07:12:54.210Z,56.22
2022-12-25T07:13:54.252Z,52.58
2022-12-25T07:14:54.249Z,41.93
2022-12-25T07:15:54.212Z,51.39
2022-12-25T07:16:54.253Z,52.73
2022-12-25T07:17:54.185Z,53.47
2022-12-25T07:18:54.194Z,53.71
2022-12-25T07:19:54.160Z,52.62
2022-12-25T07:20:54.187Z,52.33
2022-12-25T07:21:54.119Z,53.15
2022-12-25T07:22:54.122Z,55.09
2022-12-25T07:23:54.204Z,46.39
2022-12-25T07:24:54.125Z,45.30
2022-12-25T07:25:54.156Z,51.83
2022-12-25T07:26:54.141Z,50.66
2022-12-25T07:27:54.132Z,53.88
2022-12-25T07:28:54.087Z,49.27
2022-12-25T07:29:54.054Z,44.94
2022-12-25T07:30:54.080Z,50.04
2022-12-25T07:31:54.099Z,48.21
2022-12-25T07:32:54.056Z,48.37
2022-12-25T07:33:54.073Z,52.71
2022-12-25T07:34:54.023Z,52.10
2022-12-25T07:35:54.016Z,53.52
2022-12-25T07:36:54.003Z,52.59
2022-12-25T07:37:54.025Z,52.22
2022-12-25T07:38:53.987Z,54.72
2022-12-25T07:39:54.032Z,54.01
2022-12-25T07:40:54.010Z,52.94
2022-12-25T07:41:53.946Z,53.21
2022-12-25T07:42:53.934Z,55.74
2022-12-25T07:43:54.022Z,56.07
2022-12-25T07:44:53.973Z,54.01
2022-12-25T07:45:54.020Z,45.88
2022-12-25T07:46:53.901Z,51.59
2022-12-25T07:47:55.143Z,53.83
2022-12-25T07:48:54.946Z,55.02
2022-12-25T07:49:53.921Z,54.67
2022-12-25T07:50:54.016Z,54.18
2022-12-25T07:51:53.852Z,51.52
2022-12-25T07:52:53.878Z,52.54
2022-12-25T07:53:53.873Z,55.17
2022-12-25T07:54:53.884Z,52.30
2022-12-25T07:55:53.901Z,54.65
2022-12-25T07:56:53.818Z,53.09
2022-12-25T07:57:53.788Z,55.18
2022-12-25T07:58:53.843Z,56.97
2022-12-25T07:59:53.816Z,51.44
2022-12-25T08:00:53.887Z,54.14
2022-12-25T08:01:54.035Z,55.76
2022-12-25T08:02:53.957Z,53.39
2022-12-25T08:03:53.873Z,54.42
2022-12-25T08:04:53.736Z,52.93
2022-12-25T08:05:53.772Z,52.06
2022-12-25T08:06:53.694Z,51.19
2022-12-25T08:07:57.361Z,53.52
2022-12-25T08:08:54.720Z,52.75
2022-12-25T08:09:53.708Z,50.67
2022-12-25T08:10:53.703Z,53.95
2022-12-25T08:11:53.653Z,53.39
2022-12-25T08:12:53.688Z,55.24
2022-12-25T08:13:53.711Z,51.97
2022-12-25T08:14:53.645Z,54.25
2022-12-25T08:15:53.664Z,54.28
2022-12-25T08:16:53.654Z,54.55
2022-12-25T08:17:53.647Z,56.54
2022-12-25T08:18:53.606Z,55.37
2022-12-25T08:19:53.631Z,54.53
2022-12-25T08:20:53.601Z,52.74
2022-12-25T08:21:53.560Z,55.37
2022-12-25T08:22:53.556Z,52.59
2022-12-25T08:23:53.581Z,54.41
2022-12-25T08:24:53.573Z,57.12
2022-12-25T08:25:56.597Z,54.50
2022-12-25T08:26:54.558Z,56.42
2022-12-25T08:27:53.585Z,56.01
2022-12-25T08:28:53.521Z,56.48
2022-12-25T08:29:53.508Z,54.19
2022-12-25T08:30:53.585Z,56.57
2022-12-25T08:31:53.581Z,52.49
2022-12-25T08:32:53.507Z,55.52
2022-12-25T08:33:53.469Z,54.13
2022-12-25T08:34:53.503Z,57.66
2022-12-25T08:35:53.511Z,53.59
2022-12-25T08:36:53.461Z,54.74
2022-12-25T08:37:53.423Z,53.03
2022-12-25T08:38:55.682Z,55.31
2022-12-25T08:39:55.401Z,57.23
2022-12-25T08:40:53.478Z,58.24
2022-12-25T08:41:53.373Z,56.32
2022-12-25T08:42:53.391Z,58.09
2022-12-25T08:43:53.376Z,58.40
2022-12-25T08:44:53.353Z,54.82
2022-12-25T08:45:53.358Z,57.35
2022-12-25T08:46:53.347Z,55.49
2022-12-25T08:47:53.381Z,55.86
2022-12-25T08:48:53.347Z,58.75
2022-12-25T08:49:53.354Z,55.38
2022-12-25T08:50:53.303Z,56.17
2022-12-25T08:51:53.284Z,56.77
2022-12-25T08:52:53.307Z,57.70
2022-12-25T08:53:53.277Z,52.48
2022-12-25T08:54:53.285Z,58.53
2022-12-25T08:55:53.341Z,60.38
2022-12-25T08:56:58.611Z,56.61
2022-12-25T08:57:54.331Z,58.08
2022-12-25T09:06:52.332Z,56.44
2022-12-25T09:07:52.228Z,58.64
2022-12-25T09:08:52.131Z,57.02
2022-12-25T09:09:52.200Z,59.70
2022-12-25T09:10:52.170Z,57.77
2022-12-25T09:11:52.242Z,55.27
2022-12-25T09:12:52.207Z,57.83
2022-12-25T09:13:52.218Z,60.43
2022-12-25T09:14:52.160Z,58.45
2022-12-25T09:15:52.217Z,58.01
2022-12-25T09:16:52.106Z,59.25
2022-12-25T09:17:52.123Z,58.30
2022-12-25T09:18:52.276Z,57.23
2022-12-25T09:19:52.112Z,58.21
2022-12-25T09:20:52.156Z,58.43
2022-12-25T09:21:52.157Z,59.48
2022-12-25T09:22:52.145Z,56.37
2022-12-25T09:23:52.112Z,58.23
2022-12-25T09:24:52.008Z,58.95
2022-12-25T09:25:52.014Z,58.66
2022-12-25T09:26:52.092Z,59.72
2022-12-25T09:27:51.987Z,59.62
2022-12-25T09:28:52.800Z,58.66
2022-12-25T09:29:52.989Z,59.44
2022-12-25T09:30:51.988Z,57.34
2022-12-25T09:31:51.965Z,56.35
2022-12-25T09:32:51.895Z,59.47
2022-12-25T09:33:51.923Z,59.71
2022-12-25T09:34:51.964Z,59.14
2022-12-25T09:35:51.845Z,58.97
2022-12-25T09:36:51.945Z,59.66
2022-12-25T09:37:51.879Z,59.80
2022-12-25T09:38:51.870Z,58.13
2022-12-25T09:39:51.911Z,58.67
2022-12-25T09:40:51.829Z,57.68
2022-12-25T09:41:51.861Z,57.11
2022-12-25T09:42:51.819Z,58.26
2022-12-25T09:43:51.781Z,58.94
2022-12-25T09:44:51.799Z,58.21
2022-12-25T09:45:51.800Z,59.81
2022-12-25T09:46:51.887Z,59.74
2022-12-25T09:47:51.764Z,60.35
2022-12-25T09:48:51.741Z,58.33
2022-12-25T09:49:51.750Z,58.98
2022-12-25T09:50:51.823Z,59.75
2022-12-25T09:51:51.751Z,60.72
2022-12-25T09:52:52.423Z,57.46
2022-12-25T09:53:52.538Z,58.98
2022-12-25T09:54:51.709Z,57.84
2022-12-25T09:55:51.748Z,61.04
2022-12-25T09:56:51.690Z,61.76
2022-12-25T09:57:51.654Z,60.53
2022-12-25T09:58:51.685Z,60.45
2022-12-25T09:59:51.630Z,58.04
2022-12-25T10:00:51.612Z,60.29
2022-12-25T10:01:51.756Z,60.55
2022-12-25T10:02:51.787Z,58.81
2022-12-25T10:03:51.662Z,59.61
2022-12-25T10:04:51.635Z,60.18
2022-12-25T10:42:25.085Z,60.96
2022-12-25T10:43:25.202Z,62.41
2022-12-25T10:44:24.961Z,60.62
2022-12-25T10:45:24.851Z,61.65
2022-12-25T10:46:24.873Z,62.85
2022-12-25T10:47:24.899Z,60.51
2022-12-25T10:48:24.842Z,61.64
2022-12-25T10:49:24.844Z,61.19
2022-12-25T10:50:24.836Z,61.88
2022-12-25T10:51:24.870Z,61.23
2022-12-25T10:52:24.735Z,61.28
2022-12-25T10:53:24.762Z,60.78
2022-12-25T10:54:24.787Z,62.86
2022-12-25T10:55:28.805Z,61.64
2022-12-25T10:56:25.773Z,61.19
2022-12-25T10:57:24.747Z,63.01
2022-12-25T10:58:24.833Z,62.26
2022-12-25T10:59:24.680Z,61.33
2022-12-25T11:00:24.712Z,61.61
2022-12-25T11:01:24.787Z,62.55
2022-12-25T11:02:24.836Z,61.45
2022-12-25T11:03:24.980Z,61.37
2022-12-25T11:21:14.703Z,61.15
2022-12-25T11:22:14.639Z,61.91
2022-12-25T11:23:14.489Z,61.14
2022-12-25T11:24:14.459Z,61.17
2022-12-25T11:25:14.449Z,59.25
2022-12-25T11:26:14.467Z,59.51
2022-12-25T11:27:14.419Z,60.84
2022-12-25T11:28:14.397Z,62.23
2022-12-25T11:29:14.392Z,58.66
2022-12-25T11:30:16.068Z,59.63
2022-12-25T11:31:15.414Z,61.14
2022-12-25T11:32:14.402Z,60.52
2022-12-25T11:33:14.355Z,60.41
2022-12-25T11:34:14.326Z,60.30
2022-12-25T11:35:14.484Z,60.25
2022-12-25T11:36:14.307Z,62.13
2022-12-25T11:41:26.879Z,61.08
2022-12-25T11:42:26.975Z,61.73
2022-12-25T11:43:26.853Z,59.14
2022-12-25T11:53:20.663Z,60.50
2022-12-25T11:54:20.587Z,59.25
2022-12-25T11:55:20.449Z,61.22
2022-12-25T11:56:20.482Z,59.79
2022-12-25T11:57:20.464Z,61.40
2022-12-25T11:58:20.397Z,61.47
2022-12-25T11:59:20.445Z,61.73
2022-12-25T12:00:20.378Z,62.92
2022-12-25T12:01:20.508Z,62.65
2022-12-25T12:02:20.466Z,61.45
2022-12-25T12:03:20.481Z,62.12
2022-12-25T12:04:25.792Z,62.15
2022-12-25T12:05:21.420Z,61.86
2022-12-25T12:06:20.329Z,62.88
2022-12-25T12:07:20.351Z,62.24
2022-12-25T12:08:20.308Z,62.35
2022-12-25T12:09:20.303Z,62.29
2022-12-25T12:10:20.284Z,60.78
2022-12-25T12:11:20.247Z,61.75
2022-12-25T12:12:20.358Z,61.40
2022-12-25T12:13:20.245Z,61.13
2022-12-25T12:14:20.238Z,60.67
2022-12-25T12:15:20.238Z,60.35
2022-12-25T12:16:20.281Z,61.22
2022-12-25T12:17:20.245Z,60.44
2022-12-25T12:18:20.230Z,61.18
2022-12-25T12:19:20.165Z,60.73
2022-12-25T12:20:53.088Z,61.58
2022-12-25T12:21:20.927Z,60.06
2022-12-25T12:22:20.549Z,59.51
2022-12-25T12:23:21.949Z,59.71
2022-12-25T12:24:20.494Z,59.74
2022-12-25T12:36:38.126Z,58.77
2022-12-25T13:29:11.004Z,60.19
2022-12-25T13:30:07.233Z,60.14
2022-12-25T13:31:06.210Z,59.34
2022-12-25T13:32:06.073Z,58.64
2022-12-25T13:33:06.170Z,57.62
2022-12-25T13:34:06.012Z,57.93
2022-12-25T13:35:05.973Z,59.42
2022-12-25T13:36:06.038Z,56.78
2022-12-25T13:37:06.020Z,59.59
2022-12-25T13:38:05.962Z,58.38
2022-12-25T13:39:05.907Z,58.68
2022-12-25T13:40:05.920Z,59.95
2022-12-25T13:41:06.026Z,60.06
2022-12-25T13:42:05.928Z,58.78
2022-12-25T13:43:05.882Z,59.80
2022-12-25T13:44:05.886Z,58.63
2022-12-25T13:45:05.884Z,58.24
2022-12-25T13:46:05.983Z,57.91
2022-12-25T13:47:05.817Z,58.82
2022-12-25T13:48:05.880Z,58.31
2022-12-25T13:49:05.785Z,57.60
2022-12-25T13:50:05.868Z,58.91
2022-12-25T13:51:05.788Z,59.85
2022-12-25T13:52:06.457Z,59.83
2022-12-25T13:53:05.821Z,60.32
2022-12-25T13:54:05.839Z,61.01
2022-12-25T13:55:05.750Z,60.13
2022-12-25T13:56:05.735Z,60.63
2022-12-25T13:57:05.817Z,57.10
2022-12-25T13:58:05.952Z,58.47
2022-12-25T13:59:05.791Z,58.16
2022-12-25T14:00:05.767Z,58.73
2022-12-25T14:01:05.820Z,57.27
2022-12-25T14:02:05.902Z,58.23
2022-12-25T14:03:05.946Z,59.95
2022-12-25T14:04:05.652Z,57.88
2022-12-25T14:05:05.678Z,57.67
2022-12-25T14:06:05.824Z,58.14
2022-12-25T14:07:05.850Z,56.84
2022-12-25T14:08:05.620Z,59.40
2022-12-25T14:09:05.689Z,58.39
2022-12-25T14:10:06.814Z,58.66
2022-12-25T14:11:05.858Z,58.40
2022-12-25T14:12:05.747Z,55.68
2022-12-25T14:13:05.636Z,57.46
2022-12-25T14:14:05.682Z,59.58
2022-12-25T14:15:05.748Z,59.92
2022-12-25T14:16:05.691Z,60.02
2022-12-25T14:17:05.777Z,59.36
2022-12-25T14:18:05.596Z,59.59
2022-12-25T14:19:05.623Z,59.89
2022-12-25T14:20:08.605Z,58.91
2022-12-25T14:21:06.542Z,60.54
2022-12-25T14:22:05.599Z,59.30
2022-12-25T14:23:05.767Z,58.00
2022-12-25T14:24:05.623Z,56.30
2022-12-25T14:25:05.663Z,58.18
2022-12-25T14:37:14.769Z,54.84
2022-12-25T14:38:14.620Z,54.60
2022-12-25T14:39:14.617Z,52.60
2022-12-25T14:40:14.408Z,56.86
2022-12-25T14:41:14.543Z,54.89
2022-12-25T14:42:14.346Z,57.86
2022-12-25T14:43:14.295Z,56.92
2022-12-25T14:44:14.295Z,55.75
2022-12-25T14:45:14.468Z,56.91
2022-12-25T14:46:14.294Z,55.28
2022-12-25T14:47:14.387Z,58.36
2022-12-25T14:48:16.481Z,57.57
2022-12-25T14:49:14.434Z,60.04
2022-12-25T14:50:14.351Z,60.47
2022-12-25T14:51:14.431Z,59.27
2022-12-25T14:52:14.646Z,60.29
2022-12-25T14:53:14.319Z,56.70
2022-12-25T14:54:14.316Z,58.06
2022-12-25T14:55:14.292Z,61.10
2022-12-25T14:56:14.258Z,62.50
2022-12-25T14:57:14.140Z,59.14
2022-12-25T14:58:14.436Z,60.63
2022-12-25T14:59:14.477Z,59.98
2022-12-25T15:00:14.135Z,59.39
2022-12-25T15:01:14.302Z,59.90
2022-12-25T15:02:15.434Z,60.97
2022-12-25T15:03:15.418Z,56.84
2022-12-25T15:04:14.300Z,56.87
2022-12-25T15:05:14.201Z,60.93
2022-12-25T15:06:14.281Z,59.63
2022-12-25T15:07:14.146Z,59.62
2022-12-25T15:08:14.349Z,61.05
2022-12-25T15:09:14.038Z,60.83
2022-12-25T15:10:57.681Z,61.12
2022-12-25T15:11:16.104Z,59.61
2022-12-25T15:12:14.032Z,60.61
2022-12-25T15:13:14.102Z,60.22
2022-12-25T15:14:14.170Z,59.90
2022-12-25T15:15:14.048Z,56.54
2022-12-25T15:16:14.167Z,58.98
2022-12-25T15:17:13.967Z,57.86
2022-12-25T15:18:14.043Z,57.50
2022-12-25T15:19:14.631Z,58.02
2022-12-25T15:45:41.246Z,58.77
2022-12-25T16:08:16.507Z,59.07
2022-12-25T16:09:16.325Z,56.85
2022-12-25T16:10:16.242Z,62.31
2022-12-25T16:18:11.731Z,58.79
2022-12-25T16:18:55.300Z,59.71
2022-12-25T16:19:55.153Z,59.03
2022-12-25T16:20:53.417Z,56.71
2022-12-25T16:21:55.547Z,60.16
2022-12-25T16:23:20.719Z,59.54
2022-12-25T16:34:03.570Z,60.70
2022-12-25T16:34:31.625Z,60.10
2022-12-25T16:35:31.107Z,61.17
2022-12-25T16:36:30.921Z,60.12
2022-12-25T16:37:30.965Z,58.08
2022-12-25T16:38:30.963Z,59.31
2022-12-25T16:39:30.938Z,60.02
2022-12-25T16:40:30.895Z,58.93
2022-12-25T16:46:30.244Z,59.33
2022-12-25T16:47:10.256Z,60.04
2022-12-25T16:48:10.216Z,58.76
2022-12-25T16:49:48.747Z,60.40
2022-12-25T16:50:10.228Z,63.60
2022-12-25T16:51:10.064Z,58.63
2022-12-25T16:52:09.854Z,59.42
2022-12-25T16:53:10.292Z,60.46
2022-12-25T16:54:10.080Z,59.69
2022-12-25T17:12:01.554Z,56.66
2022-12-25T17:15:52.774Z,60.11
2022-12-25T17:20:58.665Z,59.77
2022-12-25T17:21:58.612Z,58.86
2022-12-25T17:22:58.654Z,58.28
2022-12-25T17:24:03.083Z,59.52
2022-12-25T17:24:59.550Z,59.30
2022-12-25T17:25:58.446Z,58.29
2022-12-25T17:26:58.515Z,61.65
2022-12-25T17:27:58.492Z,59.99
2022-12-25T17:28:58.460Z,60.55
2022-12-25T17:29:59.092Z,58.13
2022-12-25T17:30:58.557Z,60.68
2022-12-25T17:31:58.516Z,60.01
2022-12-25T17:32:58.419Z,58.76
2022-12-25T17:46:18.675Z,59.27
2022-12-25T17:47:15.866Z,58.31
2022-12-25T17:48:17.019Z,57.34
2022-12-25T17:49:17.171Z,61.07
2022-12-25T17:50:17.058Z,59.89
2022-12-25T17:51:16.931Z,58.77
2022-12-25T17:52:17.003Z,59.37
2022-12-25T17:53:16.950Z,60.23
2022-12-25T17:54:17.871Z,62.20
2022-12-25T17:55:16.964Z,60.02
2022-12-25T17:56:50.841Z,58.27
2022-12-25T17:57:18.090Z,59.04
2022-12-25T17:58:17.141Z,60.03
2022-12-25T17:59:19.426Z,59.72
2022-12-25T18:00:19.485Z,59.31
2022-12-25T18:01:16.887Z,58.34
2022-12-25T18:02:16.989Z,59.00
2022-12-25T18:03:16.965Z,61.72
2022-12-25T18:04:17.275Z,59.28
2022-12-25T18:05:17.025Z,59.68
2022-12-25T18:06:17.149Z,60.17
2022-12-25T18:07:17.469Z,57.86
2022-12-25T18:08:16.850Z,58.11
2022-12-25T18:16:49.262Z,59.31
2022-12-25T19:16:46.637Z,56.97
2022-12-25T20:21:15.157Z,55.14
2022-12-25T20:21:35.666Z,0.00
2022-12-25T20:22:26.277Z,56.39
2022-12-25T20:23:23.429Z,58.22
2022-12-25T20:24:19.875Z,54.89